createdAt,value
2023-02-28T00:02:44.252Z,6.73
2023-02-28T00:06:45.489Z,8.77
2023-02-28T00:10:46.450Z,7.60
2023-02-28T00:14:47.648Z,9.07
2023-02-28T00:18:49.541Z,7.20
2023-02-28T00:22:52.538Z,9.63
2023-02-28T00:26:53.604Z,7.93
2023-02-28T00:30:54.780Z,8.57
2023-02-28T00:34:56.367Z,8.33
2023-02-28T00:38:57.584Z,8.70
2023-02-28T00:42:58.539Z,8.40
2023-02-28T00:47:00.553Z,7.40
2023-02-28T00:51:01.879Z,10.50
2023-02-28T00:55:03.227Z,9.30
2023-02-28T00:59:04.441Z,8.70
2023-02-28T01:03:05.667Z,9.33
2023-02-28T01:07:06.993Z,9.37
2023-02-28T01:15:18.196Z,10.60
2023-02-28T01:19:19.127Z,10.47
2023-02-28T01:23:23.705Z,9.53
2023-02-28T01:27:24.953Z,10.47
2023-02-28T01:31:26.739Z,10.17
2023-02-28T01:35:28.008Z,10.20
2023-02-28T01:39:29.192Z,10.27
2023-02-28T01:43:33.332Z,12.40
2023-02-28T01:47:41.156Z,10.90
2023-02-28T01:51:51.580Z,8.73
2023-02-28T01:55:54.233Z,10.40
2023-02-28T02:00:01.499Z,9.63
2023-02-28T02:04:04.254Z,12.30
2023-02-28T02:08:09.075Z,11.97
2023-02-28T02:12:23.033Z,13.73
2023-02-28T02:16:36.992Z,11.27
2023-02-28T02:20:58.045Z,12.97
2023-02-28T02:25:26.768Z,13.17
2023-02-28T02:29:34.306Z,12.07
2023-02-28T02:34:12.339Z,13.80
2023-02-28T02:38:23.460Z,14.33
2023-02-28T02:42:28.452Z,13.17
2023-02-28T02:46:36.302Z,14.60
2023-02-28T02:50:41.063Z,15.37
2023-02-28T02:54:45.464Z,12.80
2023-02-28T02:58:49.919Z,14.60
2023-02-28T03:02:54.711Z,14.10
2023-02-28T03:06:55.872Z,14.53
2023-02-28T03:11:00.653Z,14.77
2023-02-28T03:15:14.719Z,15.60
2023-02-28T03:19:36.563Z,12.50
2023-02-28T03:23:41.518Z,13.80
2023-02-28T03:28:02.979Z,15.53
2023-02-28T03:32:08.414Z,11.73
2023-02-28T03:36:16.144Z,12.13
2023-02-28T03:40:22.825Z,13.60
2023-02-28T03:44:42.539Z,12.37
2023-02-28T03:48:48.538Z,11.63
2023-02-28T03:52:53.369Z,11.33
2023-02-28T03:57:10.328Z,13.83
2023-02-28T04:01:15.274Z,12.33
2023-02-28T04:05:16.577Z,12.77
2023-02-28T04:09:18.415Z,12.97
2023-02-28T04:13:19.527Z,13.50
2023-02-28T04:17:20.513Z,12.90
2023-02-28T04:21:22.364Z,12.77
2023-02-28T04:25:23.499Z,12.10
2023-02-28T04:29:28.299Z,12.40
2023-02-28T04:33:30.577Z,11.73
2023-02-28T04:37:33.661Z,11.10
2023-02-28T04:41:34.947Z,12.87
2023-02-28T04:45:36.194Z,12.60
2023-02-28T04:49:37.195Z,12.83
2023-02-28T04:53:39.658Z,12.67
2023-02-28T04:57:42.552Z,12.73
2023-02-28T05:01:46.722Z,14.10
2023-02-28T05:05:48.105Z,11.77
2023-02-28T05:09:49.236Z,13.53
2023-02-28T05:13:51.580Z,13.10
2023-02-28T05:17:52.600Z,12.43
2023-02-28T05:21:55.501Z,12.93
2023-02-28T05:25:57.291Z,11.53
2023-02-28T05:29:59.450Z,12.40
2023-02-28T05:34:00.939Z,12.17
2023-02-28T05:38:02.439Z,13.43
2023-02-28T05:42:03.933Z,11.63
2023-02-28T05:46:10.235Z,11.53
2023-02-28T05:50:11.795Z,13.47
2023-02-28T05:54:14.013Z,13.97
2023-02-28T05:58:14.994Z,9.67
2023-02-28T06:02:17.700Z,13.60
2023-02-28T06:06:18.873Z,11.23
2023-02-28T06:10:20.067Z,12.83
2023-02-28T06:14:21.555Z,12.63
2023-02-28T06:18:22.608Z,14.17
2023-02-28T06:22:24.118Z,12.37
2023-02-28T06:26:26.118Z,12.47
2023-02-28T06:30:29.052Z,13.10
2023-02-28T06:34:30.027Z,13.33
2023-02-28T06:38:31.894Z,11.43
2023-02-28T06:42:33.003Z,13.37
2023-02-28T06:46:34.136Z,12.43
2023-02-28T06:50:35.093Z,10.20
2023-02-28T06:54:37.154Z,10.40
2023-02-28T06:58:39.675Z,8.50
2023-02-28T07:02:40.815Z,10.60
2023-02-28T07:06:42.217Z,9.87
2023-02-28T07:10:43.630Z,10.67
2023-02-28T07:14:44.762Z,8.63
2023-02-28T07:18:45.932Z,8.90
2023-02-28T07:22:48.742Z,8.00
2023-02-28T07:26:49.790Z,7.87
2023-02-28T07:30:50.887Z,8.90
2023-02-28T07:34:51.912Z,7.93
2023-02-28T07:38:53.495Z,8.20
2023-02-28T07:42:54.553Z,7.90
2023-02-28T07:46:55.529Z,7.57
2023-02-28T07:50:57.730Z,4.90
2023-02-28T07:54:58.841Z,8.63
2023-02-28T07:58:59.804Z,7.83
2023-02-28T08:03:01.100Z,7.47
2023-02-28T08:07:02.275Z,8.13
2023-02-28T08:11:03.889Z,8.47
2023-02-28T08:15:06.039Z,6.93
2023-02-28T08:23:16.162Z,7.67
2023-02-28T08:27:17.850Z,8.20
2023-02-28T08:31:19.916Z,7.27
2023-02-28T08:35:21.159Z,8.40
2023-02-28T08:39:22.275Z,9.40
2023-02-28T08:43:23.366Z,7.97
2023-02-28T08:47:24.441Z,7.63
2023-02-28T08:51:29.024Z,6.57
2023-02-28T08:55:30.500Z,6.23
2023-02-28T08:59:32.684Z,5.73
2023-02-28T09:03:33.676Z,6.40
2023-02-28T09:07:34.883Z,7.33
2023-02-28T09:11:36.360Z,6.07
2023-02-28T09:15:38.326Z,7.50
2023-02-28T09:19:39.308Z,7.47
2023-02-28T09:23:41.711Z,7.33
2023-02-28T09:27:43.183Z,7.33
2023-02-28T09:31:44.172Z,6.33
2023-02-28T09:35:45.287Z,6.13
2023-02-28T09:39:46.290Z,5.90
2023-02-28T09:43:51.327Z,7.57
2023-02-28T09:47:56.027Z,6.57
2023-02-28T09:52:00.570Z,8.43
2023-02-28T09:56:14.588Z,6.50
2023-02-28T10:00:22.512Z,5.67
2023-02-28T10:04:55.762Z,7.70
2023-02-28T10:09:06.368Z,7.37
2023-02-28T10:13:19.976Z,7.73
2023-02-28T10:17:30.810Z,7.90
2023-02-28T10:21:41.605Z,7.90
2023-02-28T10:25:48.391Z,7.93
2023-02-28T10:29:52.487Z,7.93
2023-02-28T10:33:53.497Z,8.17
2023-02-28T10:37:57.633Z,9.00
2023-02-28T10:41:58.610Z,8.03
2023-02-28T10:46:14.318Z,6.77
2023-02-28T10:50:38.599Z,7.70
2023-02-28T10:54:41.237Z,6.57
2023-02-28T10:59:00.964Z,6.53
2023-02-28T11:03:02.220Z,7.40
2023-02-28T11:07:06.777Z,5.63
2023-02-28T11:11:07.989Z,4.87
2023-02-28T11:15:31.479Z,6.93
2023-02-28T11:19:39.037Z,7.80
2023-02-28T11:23:41.860Z,9.43
2023-02-28T11:27:49.940Z,8.00
2023-02-28T11:32:03.921Z,8.37
2023-02-28T11:36:11.048Z,8.30
2023-02-28T11:40:18.401Z,8.73
2023-02-28T11:44:23.353Z,8.20
2023-02-28T11:48:43.947Z,9.40
2023-02-28T11:52:54.675Z,7.57
2023-02-28T11:56:59.520Z,6.83
2023-02-28T12:01:26.852Z,9.13
2023-02-28T12:05:31.771Z,7.47
2023-02-28T12:09:54.516Z,8.70
2023-02-28T12:14:14.630Z,8.53
2023-02-28T12:18:22.201Z,7.90
2023-02-28T12:22:30.659Z,9.13
2023-02-28T12:26:44.176Z,8.13
2023-02-28T12:31:00.528Z,7.73
2023-02-28T12:35:08.113Z,7.20
2023-02-28T12:39:13.185Z,9.00
2023-02-28T12:43:17.229Z,9.73
2023-02-28T12:47:19.452Z,7.53
2023-02-28T12:51:21.516Z,8.97
2023-02-28T12:55:29.240Z,6.43
2023-02-28T12:59:40.365Z,8.47
2023-02-28T13:04:10.226Z,10.50
2023-02-28T13:08:28.322Z,6.50
2023-02-28T13:12:29.662Z,9.60
2023-02-28T13:16:53.042Z,8.10
2023-02-28T13:20:54.281Z,7.13
2023-02-28T13:24:56.834Z,6.13
2023-02-28T13:29:01.394Z,8.37
2023-02-28T13:33:09.591Z,8.83
2023-02-28T13:37:26.535Z,9.87
2023-02-28T13:41:37.606Z,8.80
2023-02-28T13:45:39.965Z,5.83
2023-02-28T13:49:41.612Z,8.97
2023-02-28T13:53:48.822Z,7.70
2023-02-28T13:58:10.309Z,6.90
2023-02-28T14:02:21.365Z,7.60
2023-02-28T14:06:30.894Z,6.90
2023-02-28T14:10:36.167Z,7.10
2023-02-28T14:14:40.984Z,9.80
2023-02-28T14:19:04.379Z,9.57
2023-02-28T14:23:09.469Z,7.57
2023-02-28T14:27:23.212Z,7.30
2023-02-28T14:31:28.027Z,8.13
2023-02-28T14:35:41.735Z,7.80
2023-02-28T14:39:44.178Z,9.33
2023-02-28T14:43:51.017Z,9.27
2023-02-28T14:47:53.002Z,9.13
2023-02-28T14:52:15.468Z,9.43
2023-02-28T14:56:37.268Z,10.30
2023-02-28T15:00:50.712Z,8.57
2023-02-28T15:05:01.181Z,10.17
2023-02-28T15:09:19.182Z,8.10
2023-02-28T15:13:20.792Z,7.77
2023-02-28T15:17:25.210Z,8.50
2023-02-28T15:21:38.880Z,8.57
2023-02-28T15:25:40.770Z,9.80
2023-02-28T15:29:49.855Z,10.40
2023-02-28T15:33:56.084Z,9.50
2023-02-28T15:38:03.445Z,8.40
2023-02-28T15:42:20.365Z,9.23
2023-02-28T15:46:21.936Z,7.87
2023-02-28T15:50:23.357Z,9.03
2023-02-28T15:54:35.530Z,10.30
2023-02-28T15:58:37.515Z,10.13
2023-02-28T16:02:40.357Z,9.00
2023-02-28T16:06:43.697Z,7.17
2023-02-28T16:10:45.765Z,9.20
2023-02-28T16:14:51.194Z,8.83
2023-02-28T16:18:53.158Z,10.83
2023-02-28T16:22:54.660Z,9.30
2023-02-28T16:26:57.381Z,9.80
2023-02-28T16:31:02.811Z,9.00
2023-02-28T16:35:06.368Z,8.93
2023-02-28T16:39:07.422Z,9.50
2023-02-28T16:43:12.283Z,8.50
2023-02-28T16:47:13.417Z,9.60
2023-02-28T16:51:18.547Z,9.43
2023-02-28T16:55:20.382Z,10.10
2023-02-28T16:59:26.854Z,10.70
2023-02-28T17:03:33.408Z,8.63
2023-02-28T17:07:32.050Z,10.13
2023-02-28T17:11:33.358Z,10.70
2023-02-28T17:15:35.518Z,9.80
2023-02-28T17:19:38.522Z,8.83
2023-02-28T17:23:39.716Z,11.28
2023-02-28T17:27:41.057Z,11.53
2023-02-28T17:31:42.565Z,9.60
2023-02-28T17:35:43.624Z,10.40
2023-02-28T17:39:45.110Z,9.87
2023-02-28T17:43:46.498Z,9.23
2023-02-28T17:47:50.581Z,10.80
2023-02-28T17:51:51.865Z,10.63
2023-02-28T17:55:53.008Z,9.97
2023-02-28T17:59:54.048Z,10.10
2023-02-28T18:03:56.076Z,10.53
2023-02-28T18:07:57.491Z,12.77
2023-02-28T18:12:00.437Z,10.70
2023-02-28T18:16:01.675Z,12.37
2023-02-28T18:20:04.855Z,10.77
2023-02-28T18:24:06.272Z,10.93
2023-02-28T18:28:07.372Z,10.80
2023-02-28T18:32:09.424Z,11.57
2023-02-28T18:36:10.565Z,11.80
2023-02-28T18:40:14.181Z,13.27
2023-02-28T18:44:20.867Z,12.30
2023-02-28T18:48:20.145Z,12.50
2023-02-28T18:52:21.323Z,12.13
2023-02-28T18:56:24.354Z,13.10
2023-02-28T19:00:25.740Z,12.90
2023-02-28T19:04:27.288Z,13.43
2023-02-28T19:08:28.506Z,13.30
2023-02-28T19:12:35.375Z,12.87
2023-02-28T19:16:36.794Z,11.97
2023-02-28T19:20:38.385Z,12.97
2023-02-28T19:24:39.721Z,13.00
2023-02-28T19:28:41.440Z,13.73
2023-02-28T19:32:43.197Z,13.77
2023-02-28T19:36:44.612Z,14.63
2023-02-28T19:40:46.142Z,13.90
2023-02-28T19:44:47.312Z,13.33
2023-02-28T19:48:48.467Z,15.67
2023-02-28T19:52:49.966Z,13.70
2023-02-28T19:56:54.017Z,15.00
2023-02-28T20:00:55.203Z,14.53
2023-02-28T20:04:58.652Z,15.00
2023-02-28T20:09:00.214Z,13.43
2023-02-28T20:13:01.994Z,15.90
2023-02-28T20:17:05.449Z,16.53
2023-02-28T20:21:12.392Z,16.40
2023-02-28T20:25:13.925Z,15.70
2023-02-28T20:29:15.214Z,16.70
2023-02-28T20:33:17.410Z,17.83
2023-02-28T20:37:19.026Z,16.23
2023-02-28T20:41:21.213Z,16.07
2023-02-28T20:45:23.965Z,15.50
2023-02-28T20:49:25.482Z,17.63
2023-02-28T20:53:27.670Z,16.93
2023-02-28T20:57:29.903Z,16.77
2023-02-28T21:01:31.520Z,19.53
2023-02-28T21:05:32.605Z,19.90
2023-02-28T21:09:34.165Z,19.33
2023-02-28T21:13:35.828Z,20.37
2023-02-28T21:17:36.987Z,19.27
2023-02-28T21:21:42.697Z,19.77
2023-02-28T21:25:44.109Z,18.83
2023-02-28T21:29:45.400Z,18.60
2023-02-28T21:33:47.141Z,17.90
2023-02-28T21:37:48.279Z,19.00
2023-02-28T21:41:49.553Z,17.20
2023-02-28T21:45:50.572Z,18.77
2023-02-28T21:49:51.561Z,19.03
2023-02-28T21:53:53.579Z,19.10
2023-02-28T21:57:54.592Z,19.47
2023-02-28T22:01:55.820Z,19.50
2023-02-28T22:05:56.955Z,20.03
2023-02-28T22:09:58.120Z,20.03
2023-02-28T22:13:59.306Z,19.40
2023-02-28T22:18:00.433Z,18.87
2023-02-28T22:22:01.434Z,20.13
2023-02-28T22:26:04.829Z,19.50
2023-02-28T22:30:06.764Z,19.17
2023-02-28T22:34:10.322Z,22.13
2023-02-28T22:38:12.126Z,21.27
2023-02-28T22:42:13.266Z,21.33
2023-02-28T22:46:14.320Z,20.30
2023-02-28T22:50:15.925Z,21.73
2023-02-28T22:54:17.184Z,20.87
2023-02-28T22:58:19.238Z,22.73
2023-02-28T23:02:20.892Z,21.97
2023-02-28T23:06:31.243Z,20.70
2023-02-28T23:10:32.427Z,21.77
2023-02-28T23:14:33.729Z,20.83
2023-02-28T23:18:34.714Z,21.13
2023-02-28T23:22:35.778Z,20.37
2023-02-28T23:26:43.213Z,20.47
2023-02-28T23:30:44.269Z,21.17
2023-02-28T23:34:45.192Z,19.57
2023-02-28T23:38:48.531Z,19.93
2023-02-28T23:42:50.557Z,22.33
2023-02-28T23:46:52.461Z,23.77
2023-02-28T23:50:55.452Z,20.87
2023-02-28T23:54:56.465Z,21.50
2023-02-28T23:58:58.067Z,22.63
